createdAt,value
2022-09-10T00:00:47.379Z,97208.44
2022-09-10T00:03:13.836Z,97192.66
2022-09-10T00:05:41.161Z,97197.28
2022-09-10T00:08:08.025Z,97188.84
2022-09-10T00:10:38.363Z,97191.84
2022-09-10T00:13:04.703Z,97190.78
2022-09-10T00:15:31.070Z,97189.97
2022-09-10T00:17:57.376Z,97189.41
2022-09-10T00:20:24.228Z,97192.41
2022-09-10T00:22:50.624Z,97193.75
2022-09-10T00:25:16.980Z,97195.41
2022-09-10T00:27:43.316Z,97200.84
2022-09-10T00:30:09.868Z,97205.75
2022-09-10T00:32:38.188Z,97203.84
2022-09-10T00:35:04.796Z,97203.56
2022-09-10T00:37:31.136Z,97195.41
2022-09-10T00:39:57.473Z,97186.16
2022-09-10T00:42:23.825Z,97187.25
2022-09-10T00:44:55.637Z,97191.59
2022-09-10T00:47:24.128Z,97203.56
2022-09-10T00:49:55.053Z,97205.75
2022-09-10T00:52:22.528Z,97211.72
2022-09-10T00:54:49.503Z,97204.09
2022-09-10T00:57:18.726Z,97214.97
2022-09-10T00:59:47.770Z,97204.38
2022-09-10T01:02:14.853Z,97206.84
2022-09-10T01:04:42.322Z,97211.72
2022-09-10T01:07:10.896Z,97205.19
2022-09-10T01:09:38.254Z,97233.44
2022-09-10T01:12:37.777Z,97223.94
2022-09-10T01:15:10.496Z,97221.75
2022-09-10T01:17:45.538Z,97220.91
2022-09-10T01:20:15.608Z,97213.06
2022-09-10T01:23:01.171Z,97207.91
2022-09-10T01:25:27.590Z,97211.97
2022-09-10T01:27:55.770Z,97200.00
2022-09-10T01:30:31.144Z,97203.00
2022-09-10T01:33:07.631Z,97211.94
2022-09-10T01:35:46.531Z,97193.44
2022-09-10T01:38:15.432Z,97188.28
2022-09-10T01:40:42.637Z,97189.63
2022-09-10T01:43:12.235Z,97185.81
2022-09-10T01:46:09.236Z,97185.81
2022-09-10T01:48:54.616Z,97180.16
2022-09-10T01:51:24.028Z,97177.72
2022-09-10T01:53:58.474Z,97181.53
2022-09-10T01:56:24.767Z,97181.53
2022-09-10T01:58:54.527Z,97180.44
2022-09-10T02:01:40.504Z,97183.97
2022-09-10T02:04:09.071Z,97188.31
2022-09-10T02:06:39.796Z,97176.91
2022-09-10T02:09:07.250Z,97181.81
2022-09-10T02:11:48.936Z,97176.38
2022-09-10T02:14:34.220Z,97175.53
2022-09-10T02:17:24.160Z,97174.44
2022-09-10T02:19:53.941Z,97169.00
2022-09-10T02:22:23.691Z,97175.53
2022-09-10T02:24:51.343Z,97172.81
2022-09-10T02:27:17.917Z,97176.38
2022-09-10T02:29:44.236Z,97173.66
2022-09-10T02:32:10.592Z,97171.75
2022-09-10T02:34:36.923Z,97169.31
2022-09-10T02:37:03.598Z,97174.44
2022-09-10T02:39:30.520Z,97172.00
2022-09-10T02:41:58.588Z,97170.09
2022-09-10T02:44:27.165Z,97170.94
2022-09-10T02:46:54.233Z,97179.09
2022-09-10T02:49:21.085Z,97177.72
2022-09-10T02:51:49.022Z,97178.56
2022-09-10T02:54:15.373Z,97173.66
2022-09-10T02:56:43.246Z,97173.66
2022-09-10T02:59:09.733Z,97172.00
2022-09-10T03:01:36.373Z,97168.47
2022-09-10T03:04:05.023Z,97169.56
2022-09-10T03:06:31.793Z,97161.97
2022-09-10T03:08:58.144Z,97155.97
2022-09-10T03:11:27.352Z,97156.53
2022-09-10T03:13:54.616Z,97166.88
2022-09-10T03:16:23.842Z,97162.53
2022-09-10T03:18:51.890Z,97167.94
2022-09-10T03:21:20.105Z,97165.25
2022-09-10T03:23:47.066Z,97170.66
2022-09-10T03:26:15.532Z,97161.97
2022-09-10T03:28:43.525Z,97166.34
2022-09-10T03:31:11.930Z,97172.03
2022-09-10T03:33:42.756Z,97171.19
2022-09-10T03:36:09.885Z,97166.59
2022-09-10T03:38:36.345Z,97166.03
2022-09-10T03:41:02.932Z,97171.19
2022-09-10T03:43:29.871Z,97171.97
2022-09-10T03:45:57.185Z,97172.53
2022-09-10T03:48:24.029Z,97167.13
2022-09-10T03:50:51.174Z,97169.31
2022-09-10T03:53:18.613Z,97172.81
2022-09-10T03:55:45.674Z,97172.28
2022-09-10T03:58:12.375Z,97172.56
2022-09-10T04:00:38.889Z,97174.19
2022-09-10T04:03:06.689Z,97170.94
2022-09-10T04:05:33.004Z,97174.97
2022-09-10T04:07:59.855Z,97179.03
2022-09-10T04:10:26.910Z,97182.53
2022-09-10T04:12:53.450Z,97179.28
2022-09-10T04:15:20.544Z,97177.66
2022-09-10T04:17:48.148Z,97180.06
2022-09-10T04:20:14.793Z,97182.25
2022-09-10T04:22:41.160Z,97186.59
2022-09-10T04:25:08.237Z,97179.59
2022-09-10T04:27:34.573Z,97181.75
2022-09-10T04:30:02.785Z,97175.22
2022-09-10T04:32:29.256Z,97175.22
2022-09-10T04:34:55.585Z,97182.53
2022-09-10T04:37:22.997Z,97192.59
2022-09-10T04:39:49.398Z,97184.47
2022-09-10T04:42:17.722Z,97186.66
2022-09-10T04:44:44.149Z,97179.88
2022-09-10T04:47:10.459Z,97186.91
2022-09-10T04:49:36.970Z,97195.31
2022-09-10T04:52:03.405Z,97190.97
2022-09-10T04:54:29.733Z,97200.69
2022-09-10T04:56:56.365Z,97200.63
2022-09-10T04:59:22.717Z,97197.91
2022-09-10T05:01:50.467Z,97206.13
2022-09-10T05:04:17.552Z,97209.66
2022-09-10T05:06:44.412Z,97207.00
2022-09-10T05:09:11.969Z,97216.53
2022-09-10T05:11:39.245Z,97216.78
2022-09-10T05:14:07.284Z,97208.38
2022-09-10T05:16:33.784Z,97204.56
2022-09-10T05:19:00.461Z,97214.91
2022-09-10T05:21:29.098Z,97211.13
2022-09-10T05:23:56.148Z,97210.84
2022-09-10T05:26:23.448Z,97207.59
2022-09-10T05:28:51.146Z,97207.59
2022-09-10T05:31:17.640Z,97207.84
2022-09-10T05:33:46.147Z,97209.47
2022-09-10T05:36:13.518Z,97212.75
2022-09-10T05:38:40.648Z,97207.88
2022-09-10T05:41:11.038Z,97205.41
2022-09-10T05:43:41.999Z,97197.00
2022-09-10T05:46:10.318Z,97195.13
2022-09-10T05:48:41.803Z,97201.91
2022-09-10T05:51:09.981Z,97196.47
2022-09-10T05:53:38.118Z,97201.94
2022-09-10T05:56:07.274Z,97200.56
2022-09-10T05:58:34.880Z,97206.81
2022-09-10T06:01:01.577Z,97208.19
2022-09-10T06:03:28.000Z,97208.16
2022-09-10T06:05:59.182Z,97204.09
2022-09-10T06:08:29.476Z,97203.84
2022-09-10T06:11:05.787Z,97212.53
2022-09-10T06:13:39.320Z,97215.50
2022-09-10T06:16:07.338Z,97214.16
2022-09-10T06:18:33.913Z,97208.44
2022-09-10T06:21:07.109Z,97207.38
2022-09-10T06:23:33.933Z,97223.41
2022-09-10T06:26:04.743Z,97224.75
2022-09-10T06:28:33.657Z,97222.59
2022-09-10T06:31:00.221Z,97217.97
2022-09-10T06:33:26.647Z,97219.88
2022-09-10T06:35:53.863Z,97214.19
2022-09-10T06:38:20.304Z,97218.53
2022-09-10T06:40:54.518Z,97223.13
2022-09-10T06:43:25.904Z,97220.41
2022-09-10T06:46:50.836Z,97220.69
2022-09-10T06:49:11.176Z,97222.84
2022-09-10T06:51:39.715Z,97223.66
2022-09-10T06:54:08.483Z,97231.84
2022-09-10T06:56:34.946Z,97225.84
2022-09-10T06:59:03.477Z,97237.78
2022-09-10T07:01:42.345Z,97231.25
2022-09-10T07:04:09.164Z,97231.75
2022-09-10T07:06:36.505Z,97229.03
2022-09-10T07:09:09.993Z,97235.25
2022-09-10T07:11:44.232Z,97235.25
2022-09-10T07:14:12.600Z,97235.44
2022-09-10T07:16:42.060Z,97241.38
2022-09-10T07:19:09.643Z,97236.06
2022-09-10T07:21:40.551Z,97243.66
2022-09-10T07:24:12.096Z,97245.50
2022-09-10T07:26:40.413Z,97249.56
2022-09-10T07:29:07.756Z,97248.47
2022-09-10T07:31:35.332Z,97245.75
2022-09-10T07:34:07.040Z,97256.09
2022-09-10T07:36:33.447Z,97261.09
2022-09-10T07:39:01.861Z,97268.09
2022-09-10T07:41:31.842Z,97265.56
2022-09-10T07:43:59.442Z,97268.47
2022-09-10T07:46:30.669Z,97262.59
2022-09-10T07:48:58.313Z,97267.81
2022-09-10T07:51:25.690Z,97271.63
2022-09-10T07:53:54.093Z,97273.47
2022-09-10T07:56:23.092Z,97279.00
2022-09-10T07:58:50.622Z,97276.28
2022-09-10T08:01:19.492Z,97283.75
2022-09-10T08:03:46.280Z,97287.41
2022-09-10T08:06:16.394Z,97280.06
2022-09-10T08:08:44.328Z,97286.16
2022-09-10T08:11:13.912Z,97292.03
2022-09-10T08:13:44.967Z,97292.34
2022-09-10T08:16:13.153Z,97286.31
2022-09-10T08:18:40.634Z,97291.84
2022-09-10T08:21:11.039Z,97288.56
2022-09-10T08:23:39.514Z,97286.22
2022-09-10T08:26:08.013Z,97291.69
2022-09-10T08:28:37.562Z,97296.38
2022-09-10T08:31:11.462Z,97300.56
2022-09-10T08:33:48.848Z,97303.88
2022-09-10T08:36:16.805Z,97310.44
2022-09-10T08:38:44.018Z,97306.94
2022-09-10T08:41:22.068Z,97303.88
2022-09-10T08:44:05.924Z,97298.81
2022-09-10T08:46:37.161Z,97307.38
2022-09-10T08:49:06.581Z,97296.97
2022-09-10T08:51:37.257Z,97306.63
2022-09-10T08:54:07.301Z,97301.84
2022-09-10T08:56:34.096Z,97310.34
2022-09-10T08:59:03.310Z,97307.66
2022-09-10T09:01:44.796Z,97310.16
2022-09-10T09:04:16.701Z,97307.78
2022-09-10T09:06:48.229Z,97309.97
2022-09-10T09:09:15.972Z,97309.28
2022-09-10T09:11:50.094Z,97309.22
2022-09-10T09:14:27.730Z,97307.91
2022-09-10T09:17:27.510Z,97311.63
2022-09-10T09:19:54.309Z,97322.19
2022-09-10T09:22:26.232Z,97318.16
2022-09-10T09:24:58.106Z,97317.19
2022-09-10T09:27:27.386Z,97312.19
2022-09-10T09:30:00.000Z,97322.78
2022-09-10T09:32:28.289Z,97319.63
2022-09-10T09:35:19.793Z,97320.09
2022-09-10T09:37:50.082Z,97314.06
2022-09-10T09:40:27.060Z,97317.72
2022-09-10T09:42:53.573Z,97308.47
2022-09-10T09:45:44.118Z,97305.00
2022-09-10T09:48:15.659Z,97319.34
2022-09-10T09:50:45.473Z,97319.13
2022-09-10T09:53:37.810Z,97325.16
2022-09-10T09:56:07.166Z,97320.38
2022-09-10T09:58:34.868Z,97328.06
2022-09-10T10:01:04.234Z,97330.19
2022-09-10T10:03:32.384Z,97321.25
2022-09-10T10:06:03.375Z,97323.75
2022-09-10T10:08:32.081Z,97319.38
2022-09-10T10:10:58.585Z,97329.53
2022-09-10T10:13:25.087Z,97328.91
2022-09-10T10:15:51.475Z,97335.78
2022-09-10T10:18:33.443Z,97331.59
2022-09-10T10:21:20.024Z,97327.03
2022-09-10T10:23:46.796Z,97329.94
2022-09-10T10:26:18.143Z,97322.72
2022-09-10T10:28:46.377Z,97321.22
2022-09-10T10:31:13.292Z,97320.97
2022-09-10T10:33:46.251Z,97313.09
2022-09-10T10:36:22.288Z,97298.13
2022-09-10T10:38:55.412Z,97294.66
2022-09-10T10:41:45.960Z,97301.94
2022-09-10T10:44:28.303Z,97302.44
2022-09-10T10:47:04.134Z,97293.53
2022-09-10T10:49:39.532Z,97297.72
2022-09-10T10:52:22.409Z,97294.66
2022-09-10T10:54:51.585Z,97293.84
2022-09-10T10:57:27.579Z,97290.69
2022-09-10T11:00:04.633Z,97287.38
2022-09-10T11:02:49.565Z,97289.22
2022-09-10T11:05:23.923Z,97286.75
2022-09-10T11:07:50.250Z,97290.31
2022-09-10T11:10:23.371Z,97285.38
2022-09-10T11:12:59.854Z,97274.56
2022-09-10T11:15:31.482Z,97281.78
2022-09-10T11:18:00.917Z,97286.47
2022-09-10T11:20:30.704Z,97286.28
2022-09-10T11:23:00.413Z,97292.72
2022-09-10T11:25:29.387Z,97289.03
2022-09-10T11:28:05.725Z,97298.91
2022-09-10T11:30:33.805Z,97299.56
2022-09-10T11:33:18.627Z,97287.91
2022-09-10T11:35:48.176Z,97295.03
2022-09-10T11:38:20.574Z,97284.16
2022-09-10T11:40:52.336Z,97284.50
2022-09-10T11:43:39.704Z,97280.91
2022-09-10T11:46:09.971Z,97269.63
2022-09-10T11:48:40.288Z,97279.19
2022-09-10T11:51:26.992Z,97279.53
2022-09-10T11:53:54.822Z,97277.31
2022-09-10T11:56:40.612Z,97274.97
2022-09-10T11:59:26.941Z,97279.50
2022-09-10T12:02:08.636Z,97272.19
2022-09-10T12:04:40.421Z,97277.34
2022-09-10T12:07:11.237Z,97271.84
2022-09-10T12:09:52.989Z,97272.84
2022-09-10T12:12:27.251Z,97273.91
2022-09-10T12:14:53.956Z,97270.06
2022-09-10T12:17:29.686Z,97269.69
2022-09-10T12:19:57.825Z,97272.69
2022-09-10T12:22:30.527Z,97277.66
2022-09-10T12:25:01.966Z,97263.47
2022-09-10T12:27:43.770Z,97268.22
2022-09-10T12:30:33.487Z,97277.72
2022-09-10T12:33:02.053Z,97281.03
2022-09-10T12:35:34.512Z,97286.69
2022-09-10T12:38:20.057Z,97274.81
2022-09-10T12:40:49.458Z,97273.31
2022-09-10T12:43:34.619Z,97263.47
2022-09-10T12:46:16.391Z,97254.28
2022-09-10T12:48:44.891Z,97261.97
2022-09-10T12:51:17.896Z,97260.13
2022-09-10T12:53:44.248Z,97255.47
2022-09-10T12:56:19.672Z,97255.56
2022-09-10T12:58:57.049Z,97262.91
2022-09-10T13:01:43.906Z,97255.13
2022-09-10T13:04:25.936Z,97256.59
2022-09-10T13:06:57.677Z,97258.41
2022-09-10T13:09:28.264Z,97248.75
2022-09-10T13:11:58.616Z,97251.13
2022-09-10T13:14:33.617Z,97250.91
2022-09-10T13:17:00.061Z,97242.97
2022-09-10T13:19:26.399Z,97238.06
2022-09-10T13:21:55.275Z,97233.13
2022-09-10T13:24:33.892Z,97244.06
2022-09-10T13:27:12.543Z,97240.22
2022-09-10T13:29:41.452Z,97241.88
2022-09-10T13:32:16.222Z,97235.19
2022-09-10T13:35:10.559Z,97244.84
2022-09-10T13:37:39.953Z,97258.56
2022-09-10T13:40:32.981Z,97236.69
2022-09-10T13:43:15.540Z,97244.84
2022-09-10T13:45:49.774Z,97246.19
2022-09-10T13:48:25.681Z,97249.56
2022-09-10T13:51:27.958Z,97243.28
2022-09-10T13:53:57.464Z,97250.41
2022-09-10T13:56:28.074Z,97250.00
2022-09-10T13:59:00.797Z,97246.72
2022-09-10T14:01:51.790Z,97246.25
2022-09-10T14:04:45.277Z,97253.03
2022-09-10T14:07:28.581Z,97251.22
2022-09-10T14:10:01.939Z,97258.00
2022-09-10T14:12:32.582Z,97269.97
2022-09-10T14:15:01.880Z,97270.69
2022-09-10T14:17:34.275Z,97264.78
2022-09-10T14:20:05.843Z,97257.13
2022-09-10T14:22:32.433Z,97258.16
2022-09-10T14:25:01.809Z,97253.28
2022-09-10T14:27:37.220Z,97252.22
2022-09-10T14:30:27.378Z,97242.81
2022-09-10T14:32:56.573Z,97236.84
2022-09-10T14:35:43.522Z,97231.63
2022-09-10T14:38:34.506Z,97241.38
2022-09-10T14:41:08.115Z,97232.28
2022-09-10T14:43:38.339Z,97237.09
2022-09-10T14:46:09.928Z,97232.25
2022-09-10T14:48:39.337Z,97231.41
2022-09-10T14:51:19.680Z,97217.66
2022-09-10T14:53:50.848Z,97224.69
2022-09-10T14:56:28.853Z,97228.28
2022-09-10T14:58:58.896Z,97225.34
2022-09-10T15:01:26.070Z,97239.06
2022-09-10T15:03:53.100Z,97250.81
2022-09-10T15:06:24.184Z,97261.59
2022-09-10T15:08:52.785Z,97283.97
2022-09-10T15:11:22.386Z,97279.31
2022-09-10T15:13:49.372Z,97287.41
2022-09-10T15:16:15.905Z,97291.81
2022-09-10T15:18:42.397Z,97296.66
2022-09-10T15:21:12.617Z,97298.34
2022-09-10T15:23:39.063Z,97302.50
2022-09-10T15:26:06.852Z,97289.47
2022-09-10T15:28:33.362Z,97292.19
2022-09-10T15:31:01.077Z,97283.00
2022-09-10T15:33:28.467Z,97278.09
2022-09-10T15:35:54.933Z,97283.41
2022-09-10T15:38:21.664Z,97284.63
2022-09-10T15:40:49.801Z,97280.16
2022-09-10T15:43:19.066Z,97287.91
2022-09-10T15:45:49.847Z,97276.19
2022-09-10T15:48:16.273Z,97293.44
2022-09-10T15:50:43.299Z,97290.44
2022-09-10T15:53:11.972Z,97284.56
2022-09-10T15:55:39.077Z,97284.72
2022-09-10T15:58:05.980Z,97288.22
2022-09-10T16:00:34.367Z,97282.03
2022-09-10T16:03:01.724Z,97274.81
2022-09-10T16:05:28.587Z,97272.72
2022-09-10T16:07:55.037Z,97277.72
2022-09-10T16:10:21.447Z,97278.75
2022-09-10T16:12:48.420Z,97279.06
2022-09-10T16:15:15.369Z,97277.50
2022-09-10T16:17:42.139Z,97283.34
2022-09-10T16:20:09.027Z,97276.19
2022-09-10T16:22:35.409Z,97287.59
2022-09-10T16:25:01.803Z,97293.03
2022-09-10T16:27:28.273Z,97288.91
2022-09-10T16:29:54.844Z,97279.00
2022-09-10T16:32:21.449Z,97279.66
2022-09-10T16:34:47.845Z,97279.09
2022-09-10T16:37:14.252Z,97280.28
2022-09-10T16:39:40.674Z,97275.06
2022-09-10T16:42:08.083Z,97276.44
2022-09-10T16:44:34.653Z,97282.50
2022-09-10T16:47:01.892Z,97279.41
2022-09-10T16:49:28.338Z,97283.16
2022-09-10T16:51:54.805Z,97285.28
2022-09-10T16:54:22.354Z,97276.00
2022-09-10T16:56:50.111Z,97286.84
2022-09-10T16:59:21.484Z,97280.94
2022-09-10T17:01:49.298Z,97281.47
2022-09-10T17:04:25.957Z,97288.75
2022-09-10T17:06:55.798Z,97297.69
2022-09-10T17:09:22.582Z,97294.88
2022-09-10T17:11:49.129Z,97292.72
2022-09-10T17:14:15.592Z,97279.88
2022-09-10T17:16:43.435Z,97293.53
2022-09-10T17:19:18.434Z,97294.72
2022-09-10T17:21:50.788Z,97292.00
2022-09-10T17:24:18.767Z,97295.78
2022-09-10T17:26:45.985Z,97292.53
2022-09-10T17:29:14.765Z,97303.16
2022-09-10T17:31:42.206Z,97311.38
2022-09-10T17:34:14.034Z,97315.75
2022-09-10T17:36:41.900Z,97316.84
2022-09-10T17:39:08.552Z,97323.38
2022-09-10T17:41:34.999Z,97315.78
2022-09-10T17:44:02.354Z,97327.16
2022-09-10T17:46:31.177Z,97330.47
2022-09-10T17:48:59.884Z,97323.94
2022-09-10T17:51:28.639Z,97324.16
2022-09-10T17:53:57.220Z,97322.84
2022-09-10T17:56:25.388Z,97323.47
2022-09-10T17:58:59.246Z,97316.38
2022-09-10T18:01:29.202Z,97327.31
2022-09-10T18:03:55.707Z,97326.25
2022-09-10T18:06:24.362Z,97335.50
2022-09-10T18:08:52.498Z,97333.56
2022-09-10T18:11:23.110Z,97337.78
2022-09-10T18:13:55.159Z,97343.78
2022-09-10T18:16:25.010Z,97351.97
2022-09-10T18:18:56.506Z,97362.84
2022-09-10T18:21:30.989Z,97346.56
2022-09-10T18:24:03.716Z,97353.09
2022-09-10T18:26:33.389Z,97360.97
2022-09-10T18:29:02.276Z,97353.91
2022-09-10T18:31:32.197Z,97358.53
2022-09-10T18:34:00.036Z,97349.31
2022-09-10T18:36:28.623Z,97359.94
2022-09-10T18:38:55.053Z,97362.13
2022-09-10T18:41:23.173Z,97361.31
2022-09-10T18:43:51.114Z,97369.47
2022-09-10T18:46:19.924Z,97373.84
2022-09-10T18:48:50.208Z,97371.38
2022-09-10T18:51:20.482Z,97372.47
2022-09-10T18:53:47.641Z,97371.63
2022-09-10T18:56:19.619Z,97373.28
2022-09-10T18:58:55.619Z,97374.91
2022-09-10T19:01:23.719Z,97373.25
2022-09-10T19:03:50.513Z,97372.69
2022-09-10T19:06:20.486Z,97371.03
2022-09-10T19:08:48.868Z,97378.38
2022-09-10T19:11:19.152Z,97377.03
2022-09-10T19:13:50.990Z,97377.53
2022-09-10T19:16:17.983Z,97371.59
2022-09-10T19:18:49.813Z,97375.97
2022-09-10T19:21:16.221Z,97369.66
2022-09-10T19:23:43.463Z,97378.66
2022-09-10T19:26:10.462Z,97369.72
2022-09-10T19:28:39.361Z,97368.38
2022-09-10T19:31:07.626Z,97374.34
2022-09-10T19:33:36.257Z,97377.06
2022-09-10T19:36:23.718Z,97375.72
2022-09-10T19:38:50.362Z,97381.69
2022-09-10T19:41:18.703Z,97376.78
2022-09-10T19:43:50.980Z,97381.44
2022-09-10T19:46:19.962Z,97378.69
2022-09-10T19:48:47.092Z,97370.53
2022-09-10T19:51:20.015Z,97380.34
2022-09-10T19:53:47.779Z,97380.06
2022-09-10T19:56:20.324Z,97380.06
2022-09-10T19:58:51.565Z,97376.25
2022-09-10T20:01:39.372Z,97375.97
2022-09-10T20:04:08.564Z,97372.72
2022-09-10T20:06:35.988Z,97379.81
2022-09-10T20:09:04.715Z,97378.19
2022-09-10T20:11:33.338Z,97385.78
2022-09-10T20:14:07.764Z,97379.25
2022-09-10T20:16:39.500Z,97374.09
2022-09-10T20:19:06.919Z,97387.44
2022-09-10T20:21:34.089Z,97384.72
2022-09-10T20:24:00.500Z,97375.44
2022-09-10T20:26:29.612Z,97373.81
2022-09-10T20:28:59.306Z,97374.09
2022-09-10T20:31:27.990Z,97372.19
2022-09-10T20:33:56.474Z,97375.16
2022-09-10T20:36:24.160Z,97372.72
2022-09-10T20:38:51.889Z,97376.81
2022-09-10T20:41:18.547Z,97379.25
2022-09-10T20:43:50.997Z,97381.44
2022-09-10T20:46:18.533Z,97378.19
2022-09-10T20:48:49.152Z,97382.25
2022-09-10T20:51:20.428Z,97382.78
2022-09-10T20:53:47.885Z,97387.97
2022-09-10T20:56:17.996Z,97386.34
2022-09-10T20:58:45.732Z,97384.16
2022-09-10T21:01:16.353Z,97384.44
2022-09-10T21:03:43.625Z,97376.00
2022-09-10T21:06:11.673Z,97378.72
2022-09-10T21:08:40.560Z,97381.16
2022-09-10T21:11:09.691Z,97383.09
2022-09-10T21:13:37.394Z,97382.53
2022-09-10T21:16:13.636Z,97388.25
2022-09-10T21:18:41.681Z,97395.06
2022-09-10T21:21:13.364Z,97390.97
2022-09-10T21:23:58.823Z,97396.66
2022-09-10T21:26:27.471Z,97397.22
2022-09-10T21:28:58.586Z,97402.41
2022-09-10T21:31:27.219Z,97411.34
2022-09-10T21:34:00.697Z,97410.56
2022-09-10T21:36:29.168Z,97413.53
2022-09-10T21:38:57.593Z,97408.94
2022-09-10T21:41:32.965Z,97416.25
2022-09-10T21:44:00.987Z,97415.16
2022-09-10T21:46:27.978Z,97417.63
2022-09-10T21:48:55.104Z,97415.69
2022-09-10T21:51:22.676Z,97414.63
2022-09-10T21:53:53.142Z,97417.34
2022-09-10T21:56:19.608Z,97414.38
2022-09-10T21:58:46.532Z,97417.88
2022-09-10T22:01:21.834Z,97412.44
2022-09-10T22:03:49.463Z,97416.78
2022-09-10T22:06:21.248Z,97416.78
2022-09-10T22:08:50.033Z,97415.16
2022-09-10T22:11:21.321Z,97419.53
2022-09-10T22:13:53.069Z,97421.44
2022-09-10T22:16:20.819Z,97421.44
2022-09-10T22:18:47.955Z,97426.03
2022-09-10T22:21:14.721Z,97420.91
2022-09-10T22:23:41.594Z,97433.41
2022-09-10T22:26:17.099Z,97424.41
2022-09-10T22:28:44.495Z,97423.06
2022-09-10T22:31:19.103Z,97423.88
2022-09-10T22:33:50.708Z,97421.97
2022-09-10T22:36:21.243Z,97416.22
2022-09-10T22:38:49.905Z,97422.50
2022-09-10T22:41:17.118Z,97418.94
2022-09-10T22:43:43.561Z,97432.00
2022-09-10T22:46:10.388Z,97431.69
2022-09-10T22:48:38.569Z,97431.16
2022-09-10T22:51:06.971Z,97427.09
2022-09-10T22:53:34.405Z,97430.94
2022-09-10T22:56:02.169Z,97425.53
2022-09-10T22:58:28.837Z,97434.75
2022-09-10T23:00:56.201Z,97439.13
2022-09-10T23:03:22.991Z,97443.47
2022-09-10T23:05:49.715Z,97439.41
2022-09-10T23:08:16.885Z,97433.41
2022-09-10T23:10:43.300Z,97427.44
2022-09-10T23:13:09.717Z,97435.59
2022-09-10T23:15:36.364Z,97427.44
2022-09-10T23:18:02.796Z,97423.91
2022-09-10T23:20:29.206Z,97420.34
2022-09-10T23:22:55.597Z,97429.34
2022-09-10T23:25:22.033Z,97424.41
2022-09-10T23:27:51.080Z,97414.38
2022-09-10T23:30:17.900Z,97422.81
2022-09-10T23:32:45.185Z,97430.44
2022-09-10T23:35:11.574Z,97429.88
2022-09-10T23:37:38.271Z,97426.34
2022-09-10T23:40:05.443Z,97426.91
2022-09-10T23:42:32.868Z,97430.44
2022-09-10T23:44:59.342Z,97424.44
2022-09-10T23:47:26.033Z,97434.50
2022-09-10T23:49:53.053Z,97431.25
2022-09-10T23:52:20.378Z,97423.88
2022-09-10T23:54:47.328Z,97426.06
2022-09-10T23:57:13.760Z,97425.25
2022-09-10T23:59:40.227Z,97423.06
